Time;durP1;ratioP1;P1;durP2;ratioP2;P2;SDS_P1;SDS_P2;PMS_P1;PMS_P2;Temp;Humidity;BMP_temperature;BMP_pressure;BME280_temperature;BME280_humidity;BME280_pressure;Samples;Min_cycle;Max_cycle;Signal;HPM_P1;HPM_P2
2022/01/26 00:06:34;;;;;;;102.70;32.65;;;2.60;99.90;;;;;;5112362;28;20104;-49
2022/01/26 00:09:00;;;;;;;102.18;30.77;;;2.60;99.90;;;;;;5111800;28;20562;-49
2022/01/26 00:11:27;;;;;;;99.30;30.23;;;2.60;99.90;;;;;;5111470;28;20124;-49
2022/01/26 00:13:54;;;;;;;101.35;30.60;;;2.60;99.90;;;;;;5112225;28;20032;-52
2022/01/26 00:16:27;;;;;;;92.85;27.95;;;2.60;99.90;;;;;;5111707;28;20043;-48
2022/01/26 00:18:57;;;;;;;95.53;30.35;;;2.50;99.90;;;;;;5111679;28;20610;-48
2022/01/26 00:21:38;;;;;;;105.53;30.98;;;2.50;99.90;;;;;;5111292;28;20043;-49
2022/01/26 00:29:15;;;;;;;96.57;30.23;;;2.50;99.90;;;;;;5111865;28;20058;-49
2022/01/26 00:40:08;;;;;;;101.50;28.98;;;2.40;99.90;;;;;;5111025;28;20062;-49
2022/01/26 00:42:38;;;;;;;109.45;30.85;;;2.40;99.90;;;;;;5111215;28;20082;-49
2022/01/26 00:45:08;;;;;;;106.55;32.05;;;2.40;99.90;;;;;;5092911;28;20054;-48
2022/01/26 00:47:34;;;;;;;111.65;32.17;;;2.40;99.90;;;;;;5110441;28;20079;-51
2022/01/26 00:50:05;;;;;;;109.82;32.95;;;2.40;99.90;;;;;;5111116;28;20078;-48
2022/01/26 00:52:42;;;;;;;102.82;30.42;;;2.50;99.90;;;;;;5110742;28;20047;-48
2022/01/26 00:55:14;;;;;;;107.90;33.05;;;2.40;99.90;;;;;;5110881;28;20043;-49
2022/01/26 00:57:41;;;;;;;103.50;31.17;;;2.40;99.90;;;;;;5111522;28;20058;-52
2022/01/26 01:00:13;;;;;;;110.32;30.42;;;2.40;99.90;;;;;;5111545;28;20110;-49
2022/01/26 01:02:38;;;;;;;93.60;29.85;;;2.40;99.90;;;;;;5092392;28;20053;-49
2022/01/26 01:05:14;;;;;;;101.78;32.55;;;2.40;99.90;;;;;;5111159;28;20461;-50
2022/01/26 01:07:41;;;;;;;105.75;32.17;;;2.40;99.90;;;;;;5110716;28;20826;-49
2022/01/26 01:10:07;;;;;;;109.53;32.10;;;2.40;99.90;;;;;;5110794;28;20043;-48
2022/01/26 01:12:39;;;;;;;107.85;34.78;;;2.40;99.90;;;;;;5110536;28;20044;-50
2022/01/26 01:15:06;;;;;;;106.72;33.05;;;2.40;99.90;;;;;;5110851;28;20122;-52
2022/01/26 01:17:38;;;;;;;101.30;32.75;;;2.40;99.90;;;;;;5110213;28;20549;-49
2022/01/26 01:33:04;;;;;;;113.03;33.30;;;2.40;99.90;;;;;;5110785;28;20079;-49
2022/01/26 01:35:32;;;;;;;116.75;31.65;;;2.30;99.90;;;;;;5110338;28;20040;-51
2022/01/26 01:38:07;;;;;;;108.50;33.75;;;2.30;99.90;;;;;;5091492;28;20047;-48
2022/01/26 01:40:33;;;;;;;103.10;31.48;;;2.30;99.90;;;;;;5092196;28;20090;-49
2022/01/26 01:42:58;;;;;;;108.32;31.65;;;2.30;99.90;;;;;;5110489;28;20100;-48
2022/01/26 01:45:47;;;;;;;105.35;32.28;;;2.30;99.90;;;;;;5075050;28;20822;-49
2022/01/26 01:48:17;;;;;;;110.18;33.15;;;2.30;99.90;;;;;;5110888;28;20732;-49
2022/01/26 01:50:43;;;;;;;105.95;30.08;;;2.30;99.90;;;;;;5110414;28;20082;-49
2022/01/26 01:53:11;;;;;;;102.97;32.03;;;2.30;99.90;;;;;;5110639;28;20044;-47
2022/01/26 01:55:48;;;;;;;105.90;31.73;;;2.30;99.90;;;;;;5110031;28;20035;-48
2022/01/26 01:58:15;;;;;;;96.32;29.05;;;2.30;99.90;;;;;;5110509;28;20671;-49
2022/01/26 02:00:41;;;;;;;100.57;31.23;;;2.30;99.90;;;;;;5114370;28;20043;-48
2022/01/26 02:03:06;;;;;;;109.30;34.60;;;2.30;99.90;;;;;;5114159;28;20047;-48
2022/01/26 02:05:32;;;;;;;104.55;31.73;;;2.30;99.90;;;;;;5114589;28;20040;-49
2022/01/26 02:07:59;;;;;;;95.60;29.10;;;2.20;99.90;;;;;;5114595;28;20043;-48
2022/01/26 02:10:28;;;;;;;96.80;30.58;;;2.20;99.90;;;;;;5114121;28;20039;-49
2022/01/26 02:13:00;;;;;;;98.78;31.70;;;2.20;99.90;;;;;;5113909;28;20085;-50
2022/01/26 02:15:35;;;;;;;103.18;32.17;;;2.20;99.90;;;;;;5114042;28;20035;-52
2022/01/26 02:56:01;;;;;;;90.95;28.05;;;2.10;99.90;;;;;;5113298;28;20507;-48
2022/01/26 03:03:58;;;;;;;89.15;29.02;;;2.00;99.90;;;;;;5113031;28;20039;-50
2022/01/26 03:06:32;;;;;;;89.43;28.52;;;2.10;99.90;;;;;;5079696;28;20049;-49
2022/01/26 03:09:04;;;;;;;95.13;29.23;;;2.10;99.90;;;;;;5112832;28;20054;-50
2022/01/26 03:11:33;;;;;;;88.32;27.95;;;2.10;99.90;;;;;;5113069;28;20054;-51
2022/01/26 03:14:09;;;;;;;87.15;27.25;;;2.00;99.90;;;;;;5113226;28;20043;-48
2022/01/26 03:16:43;;;;;;;96.45;31.00;;;2.00;99.90;;;;;;5113010;28;20100;-52
2022/01/26 03:19:30;;;;;;;93.30;30.92;;;2.00;99.90;;;;;;5112848;28;20136;-52
2022/01/26 03:28:04;;;;;;;93.32;29.17;;;2.10;99.90;;;;;;5112836;28;20050;-50
2022/01/26 03:30:19;;;;;;;97.50;30.20;;;2.00;99.90;;;;;;5112226;28;20044;-49
2022/01/26 03:33:09;;;;;;;97.60;29.23;;;2.10;99.90;;;;;;5112698;28;20112;-52
2022/01/26 03:35:45;;;;;;;100.38;30.58;;;2.00;99.90;;;;;;5112672;28;20408;-52
2022/01/26 03:38:26;;;;;;;99.25;29.23;;;2.00;99.90;;;;;;5112205;28;20036;-52
2022/01/26 03:43:36;;;;;;;85.45;28.15;;;2.00;99.90;;;;;;5112602;28;20043;-50
2022/01/26 03:46:02;;;;;;;105.00;34.35;;;2.90;99.90;;;;;;5094192;28;20469;-50
2022/01/26 03:48:30;;;;;;;104.72;30.80;;;2.00;99.90;;;;;;5112444;28;20439;-48
2022/01/26 03:50:56;;;;;;;105.13;31.73;;;2.00;99.90;;;;;;5112408;28;20036;-50
2022/01/26 03:53:21;;;;;;;107.70;33.38;;;1.90;99.90;;;;;;5112758;28;20765;-50
2022/01/26 03:55:47;;;;;;;109.25;31.27;;;2.00;99.90;;;;;;5112101;28;20043;-48
2022/01/26 03:58:13;;;;;;;102.43;30.25;;;1.90;99.90;;;;;;5112505;28;20044;-51
2022/01/26 04:00:38;;;;;;;103.47;31.30;;;1.90;99.90;;;;;;5112494;28;20038;-51
2022/01/26 04:03:04;;;;;;;105.78;30.10;;;3.80;99.90;;;;;;5112638;28;20065;-49
2022/01/26 04:05:30;;;;;;;108.53;31.20;;;1.90;99.90;;;;;;5112593;28;20039;-51
2022/01/26 04:08:02;;;;;;;99.82;32.80;;;1.90;99.90;;;;;;5111990;28;20058;-50
2022/01/26 04:10:51;;;;;;;111.82;32.50;;;1.90;99.90;;;;;;5112381;28;20148;-49
2022/01/26 04:13:17;;;;;;;110.57;32.85;;;1.90;99.90;;;;;;5112134;28;20040;-50
2022/01/26 04:15:43;;;;;;;111.22;32.47;;;1.90;99.90;;;;;;5093476;28;20088;-48
2022/01/26 04:18:13;;;;;;;103.70;31.95;;;1.90;99.90;;;;;;5112065;28;20050;-51
2022/01/26 04:20:43;;;;;;;108.60;31.20;;;1.90;99.90;;;;;;5093367;28;20059;-52
2022/01/26 04:24:14;;;;;;;109.15;31.30;;;1.90;99.90;;;;;;5111545;28;20140;-51
2022/01/26 04:26:04;;;;;;;108.47;31.42;;;1.90;99.90;;;;;;5097672;28;20048;-52
2022/01/26 04:28:38;;;;;;;109.82;33.22;;;1.80;99.90;;;;;;5111865;28;20126;-52
2022/01/26 04:31:04;;;;;;;110.00;34.03;;;1.80;99.90;;;;;;5111630;28;20050;-50
2022/01/26 04:33:33;;;;;;;118.60;32.30;;;1.90;99.90;;;;;;5111793;28;20043;-49
2022/01/26 04:35:58;;;;;;;110.65;33.35;;;1.80;99.90;;;;;;5111728;28;20118;-49
2022/01/26 04:38:32;;;;;;;109.63;33.70;;;1.90;99.90;;;;;;5111267;28;20174;-50
2022/01/26 04:43:27;;;;;;;109.22;31.48;;;1.90;99.90;;;;;;5111386;28;20127;-49
2022/01/26 04:45:53;;;;;;;110.10;33.42;;;1.90;99.90;;;;;;5111337;28;20092;-54
2022/01/26 04:48:19;;;;;;;110.45;32.97;;;1.80;99.90;;;;;;5111377;28;20434;-51
2022/01/26 04:50:45;;;;;;;111.75;33.25;;;1.90;99.90;;;;;;5111291;28;20171;-49
2022/01/26 04:53:11;;;;;;;115.88;31.88;;;1.80;99.90;;;;;;5111129;28;20036;-48
2022/01/26 04:55:37;;;;;;;104.13;28.10;;;1.80;99.90;;;;;;5111299;28;20051;-48
2022/01/26 04:58:03;;;;;;;111.50;32.60;;;1.80;99.90;;;;;;5110976;28;20516;-50
2022/01/26 05:00:29;;;;;;;109.55;32.70;;;1.80;99.90;;;;;;5111028;28;20397;-48
2022/01/26 05:02:54;;;;;;;97.72;31.17;;;1.80;99.90;;;;;;5110523;28;20043;-52
2022/01/26 05:05:20;;;;;;;121.40;35.17;;;1.80;99.90;;;;;;5110913;28;20035;-51
2022/01/26 05:07:46;;;;;;;103.00;30.35;;;1.80;99.90;;;;;;5111095;28;20044;-50
2022/01/26 05:10:12;;;;;;;112.65;32.05;;;1.80;99.90;;;;;;5110765;28;20541;-48
2022/01/26 05:12:39;;;;;;;106.55;31.50;;;2.90;99.90;;;;;;5111207;28;20032;-52
2022/01/26 05:15:04;;;;;;;103.82;31.73;;;1.80;99.90;;;;;;5111159;28;20141;-49
2022/01/26 05:17:30;;;;;;;103.13;32.95;;;1.80;99.90;;;;;;5092933;28;20170;-49
2022/01/26 05:19:59;;;;;;;105.93;31.55;;;1.80;99.90;;;;;;5111034;28;20039;-51
2022/01/26 05:22:25;;;;;;;114.93;32.95;;;1.80;99.90;;;;;;5111122;28;20511;-51
2022/01/26 05:24:52;;;;;;;106.07;32.60;;;1.80;99.90;;;;;;5110567;28;20055;-49
2022/01/26 05:27:19;;;;;;;109.35;32.53;;;1.80;99.90;;;;;;5110623;28;20048;-48
2022/01/26 05:29:45;;;;;;;115.47;33.13;;;2.70;99.90;;;;;;5092631;28;20382;-52
2022/01/26 05:32:11;;;;;;;105.80;31.60;;;1.80;99.90;;;;;;5110407;28;20075;-49
2022/01/26 05:34:37;;;;;;;102.38;32.15;;;1.80;99.90;;;;;;5110897;28;20116;-51
2022/01/26 05:37:03;;;;;;;108.60;29.85;;;1.80;99.90;;;;;;5110742;28;20035;-49
2022/01/26 05:39:28;;;;;;;110.85;34.80;;;1.80;99.90;;;;;;5109905;28;20046;-48
2022/01/26 05:41:54;;;;;;;113.45;33.83;;;1.80;99.90;;;;;;5110232;28;20043;-51
2022/01/26 05:44:20;;;;;;;106.53;32.92;;;1.80;99.90;;;;;;5110203;28;20048;-49
2022/01/26 05:46:48;;;;;;;107.45;33.30;;;1.80;99.90;;;;;;5110369;28;20047;-50
2022/01/26 05:49:17;;;;;;;102.18;31.45;;;1.80;99.90;;;;;;5091637;28;20118;-49
2022/01/26 05:51:45;;;;;;;98.93;29.88;;;1.80;99.90;;;;;;5110082;28;20542;-50
2022/01/26 05:54:12;;;;;;;103.07;31.08;;;1.80;99.90;;;;;;5110187;28;20050;-48
2022/01/26 05:56:38;;;;;;;104.22;32.25;;;1.80;99.90;;;;;;5110318;28;20126;-52
2022/01/26 05:59:04;;;;;;;105.63;33.28;;;1.80;99.90;;;;;;5109841;28;20036;-51
2022/01/26 06:01:30;;;;;;;93.45;28.05;;;1.70;99.90;;;;;;5091572;28;20084;-51
2022/01/26 06:03:55;;;;;;;94.72;30.05;;;1.80;99.90;;;;;;5110274;28;20431;-48
2022/01/26 06:06:21;;;;;;;97.05;29.23;;;1.80;99.90;;;;;;5110226;28;20671;-49
2022/01/26 06:08:47;;;;;;;94.35;30.13;;;1.80;99.90;;;;;;5110213;28;20092;-51
2022/01/26 06:11:13;;;;;;;92.75;30.45;;;1.70;99.90;;;;;;5109683;28;20441;-51
2022/01/26 06:13:39;;;;;;;98.93;30.33;;;1.80;99.90;;;;;;5110042;28;20042;-53
2022/01/26 06:16:05;;;;;;;93.07;30.67;;;1.70;99.90;;;;;;5109789;28;20047;-49
2022/01/26 06:18:30;;;;;;;96.72;28.45;;;1.70;99.90;;;;;;5110418;28;20136;-52
2022/01/26 06:20:56;;;;;;;87.97;27.20;;;1.70;99.90;;;;;;5109915;28;20047;-51
2022/01/26 06:23:26;;;;;;;92.50;28.83;;;1.70;99.90;;;;;;5110065;28;20052;-49
2022/01/26 06:25:57;;;;;;;103.75;32.53;;;1.80;99.90;;;;;;5109971;28;20146;-52
2022/01/26 06:28:27;;;;;;;97.88;29.80;;;1.70;99.90;;;;;;5110022;28;20047;-50
2022/01/26 06:30:56;;;;;;;90.72;28.95;;;1.70;99.90;;;;;;5109875;28;20393;-51
2022/01/26 06:33:22;;;;;;;97.72;28.52;;;1.70;99.90;;;;;;5109809;28;20046;-49
2022/01/26 06:35:48;;;;;;;101.45;29.33;;;1.70;99.90;;;;;;5109973;28;20893;-50
2022/01/26 06:38:16;;;;;;;88.28;29.10;;;1.70;99.90;;;;;;5109491;28;20118;-52
2022/01/26 06:40:42;;;;;;;91.60;29.50;;;1.70;99.90;;;;;;5110033;28;20047;-51
2022/01/26 06:43:14;;;;;;;96.22;28.50;;;1.60;99.90;;;;;;5109752;28;20050;-53
2022/01/26 06:45:58;;;;;;;94.15;29.38;;;1.70;99.90;;;;;;5093883;28;20055;-49
2022/01/26 06:50:55;;;;;;;90.28;28.88;;;1.70;99.90;;;;;;5113323;28;20383;-49
2022/01/26 06:53:21;;;;;;;85.63;27.52;;;1.70;99.90;;;;;;5113324;28;20043;-51
2022/01/26 06:55:47;;;;;;;85.78;28.45;;;1.70;99.90;;;;;;5113496;28;20066;-50
2022/01/26 06:58:12;;;;;;;86.00;25.27;;;1.80;99.90;;;;;;5112904;28;20046;-51
2022/01/26 07:00:38;;;;;;;88.35;26.83;;;1.70;99.90;;;;;;5113155;28;20048;-51
2022/01/26 07:03:04;;;;;;;81.28;24.92;;;1.80;99.90;;;;;;5113499;28;20047;-49
2022/01/26 07:05:30;;;;;;;89.38;26.27;;;1.70;99.90;;;;;;5112884;28;20101;-50
2022/01/26 07:07:55;;;;;;;85.32;26.20;;;1.80;99.90;;;;;;5113550;28;20123;-51
2022/01/26 07:10:21;;;;;;;84.82;28.83;;;1.80;99.90;;;;;;5113119;28;20080;-51
2022/01/26 07:12:47;;;;;;;90.05;26.92;;;1.70;99.90;;;;;;5113237;28;20477;-48
2022/01/26 07:23:26;;;;;;;83.45;23.88;;;1.80;99.90;;;;;;5112963;28;20043;-51
2022/01/26 07:25:52;;;;;;;85.97;25.55;;;1.80;99.90;;;;;;5112756;28;20493;-49
2022/01/26 07:28:18;;;;;;;78.30;26.10;;;1.80;99.90;;;;;;5112867;28;20048;-52
2022/01/26 07:30:44;;;;;;;77.95;25.80;;;1.80;99.90;;;;;;5094282;28;20087;-53
2022/01/26 07:33:09;;;;;;;74.45;24.48;;;1.80;99.90;;;;;;5112212;28;20556;-49
2022/01/26 07:35:35;;;;;;;74.32;25.10;;;1.80;99.90;;;;;;5112399;28;20131;-52
2022/01/26 07:38:03;;;;;;;79.18;26.83;;;1.80;99.90;;;;;;5111833;28;20712;-49
2022/01/26 07:40:30;;;;;;;74.72;27.08;;;1.80;99.90;;;;;;5112351;28;20117;-52
2022/01/26 07:42:56;;;;;;;78.18;25.98;;;3.20;99.90;;;;;;5112390;28;20079;-52
2022/01/26 07:45:21;;;;;;;87.45;29.50;;;1.80;99.90;;;;;;5112263;28;20082;-52
2022/01/26 07:47:53;;;;;;;85.22;28.88;;;1.80;99.90;;;;;;5112357;28;20074;-49
2022/01/26 07:50:21;;;;;;;76.72;26.70;;;1.80;99.90;;;;;;5111943;28;20098;-50
2022/01/26 07:52:47;;;;;;;80.68;27.38;;;1.80;99.90;;;;;;5112330;28;20039;-49
2022/01/26 07:55:16;;;;;;;82.88;29.73;;;3.30;99.90;;;;;;5112302;28;20043;-50
2022/01/26 07:57:48;;;;;;;87.68;30.45;;;1.90;99.90;;;;;;5111322;28;20126;-52
2022/01/26 08:00:14;;;;;;;102.68;33.25;;;1.90;99.90;;;;;;5112081;28;20453;-49
2022/01/26 08:02:41;;;;;;;88.43;30.48;;;1.90;99.90;;;;;;5111862;28;20042;-52
2022/01/26 08:05:07;;;;;;;87.07;29.20;;;1.90;99.90;;;;;;5112010;28;20369;-50
2022/01/26 08:07:33;;;;;;;85.88;29.48;;;1.90;99.90;;;;;;5111272;28;20450;-51
2022/01/26 08:09:59;;;;;;;94.85;32.15;;;2.30;99.90;;;;;;5111621;28;20449;-49
2022/01/26 08:12:25;;;;;;;94.55;32.13;;;1.90;99.90;;;;;;5092982;28;20078;-52
2022/01/26 08:14:51;;;;;;;99.60;34.42;;;1.90;99.90;;;;;;5111626;28;20078;-52
2022/01/26 08:17:16;;;;;;;85.68;30.75;;;2.00;99.90;;;;;;5111624;28;20047;-49
2022/01/26 08:19:42;;;;;;;88.75;30.58;;;2.00;99.90;;;;;;5093634;28;20118;-52
2022/01/26 08:22:08;;;;;;;91.82;31.67;;;2.00;99.90;;;;;;5112070;28;20039;-52
2022/01/26 08:24:35;;;;;;;98.07;33.20;;;2.00;99.90;;;;;;5111232;28;20095;-49
2022/01/26 08:27:09;;;;;;;98.68;33.80;;;2.00;99.90;;;;;;5111471;28;20485;-51
2022/01/26 08:29:44;;;;;;;98.60;34.70;;;2.00;99.90;;;;;;5110975;28;20047;-49
2022/01/26 08:32:10;;;;;;;95.28;35.63;;;2.00;99.90;;;;;;5111461;28;20471;-51
2022/01/26 08:34:37;;;;;;;92.57;32.60;;;1.90;99.90;;;;;;5111039;28;20077;-49
2022/01/26 08:37:04;;;;;;;89.68;33.25;;;2.10;99.90;;;;;;5111225;28;20052;-49
2022/01/26 08:39:32;;;;;;;100.78;33.65;;;2.10;99.90;;;;;;5110724;28;20042;-52
2022/01/26 08:41:59;;;;;;;100.43;36.92;;;2.10;99.90;;;;;;5111380;28;20055;-52
2022/01/26 08:44:25;;;;;;;100.60;35.17;;;2.10;99.90;;;;;;5111437;28;20427;-51
2022/01/26 08:46:51;;;;;;;102.82;36.45;;;2.10;99.90;;;;;;5111112;28;20040;-51
2022/01/26 08:49:17;;;;;;;101.43;35.22;;;2.10;99.90;;;;;;5111343;28;20123;-50
2022/01/26 08:51:42;;;;;;;115.55;36.90;;;4.30;99.90;;;;;;5111691;28;20118;-49
2022/01/26 08:54:10;;;;;;;113.03;39.03;;;2.10;99.90;;;;;;5111620;28;20090;-51
2022/01/26 08:56:37;;;;;;;123.80;41.28;;;2.10;99.90;;;;;;5111121;28;20046;-49
2022/01/26 08:59:03;;;;;;;118.93;38.45;;;2.10;99.90;;;;;;5111283;28;20100;-51
2022/01/26 09:01:29;;;;;;;119.18;41.28;;;2.10;99.90;;;;;;5111091;28;20047;-51
2022/01/26 09:03:55;;;;;;;127.88;41.50;;;2.10;99.90;;;;;;5110891;28;20066;-50
2022/01/26 09:06:21;;;;;;;125.05;44.70;;;2.10;99.90;;;;;;5110712;28;20043;-52
2022/01/26 09:08:52;;;;;;;120.15;43.90;;;2.20;99.90;;;;;;5109896;28;20111;-53
2022/01/26 09:11:22;;;;;;;123.65;41.63;;;2.10;99.90;;;;;;5093293;28;20050;-48
2022/01/26 09:13:55;;;;;;;135.70;46.97;;;2.20;99.90;;;;;;5110563;28;20036;-50
2022/01/26 09:16:23;;;;;;;130.82;46.28;;;2.20;99.90;;;;;;5110615;28;20039;-51
2022/01/26 09:18:59;;;;;;;132.75;45.95;;;2.20;99.90;;;;;;5110552;28;20051;-51
2022/01/26 09:21:25;;;;;;;130.55;46.05;;;2.30;99.90;;;;;;5092370;28;20051;-49
2022/01/26 09:23:51;;;;;;;140.43;47.08;;;2.30;99.90;;;;;;5110951;28;20123;-50
2022/01/26 09:26:18;;;;;;;149.00;46.85;;;2.30;99.90;;;;;;5110588;28;20386;-52
2022/01/26 09:28:44;;;;;;;141.48;49.25;;;2.40;99.90;;;;;;5110755;28;20047;-50
2022/01/26 09:31:10;;;;;;;137.40;50.40;;;2.40;99.90;;;;;;5110903;28;20035;-50
2022/01/26 09:33:36;;;;;;;138.38;48.80;;;2.40;99.90;;;;;;5110618;28;20508;-51
2022/01/26 09:36:03;;;;;;;139.95;48.05;;;2.40;99.90;;;;;;5110587;28;20469;-51
2022/01/26 09:38:28;;;;;;;142.13;50.35;;;2.50;99.90;;;;;;5109560;28;20118;-52
2022/01/26 09:40:54;;;;;;;146.52;49.72;;;2.50;99.90;;;;;;5110674;28;20182;-52
2022/01/26 09:43:20;;;;;;;141.38;49.03;;;2.50;99.90;;;;;;5110293;28;20043;-51
2022/01/26 09:45:47;;;;;;;135.15;45.65;;;2.60;99.90;;;;;;5110299;28;20393;-51
2022/01/26 09:48:13;;;;;;;152.02;52.88;;;2.60;99.90;;;;;;5110300;28;20112;-48
2022/01/26 09:50:44;;;;;;;140.93;48.22;;;2.60;99.90;;;;;;5110460;28;20048;-50
2022/01/26 09:53:15;;;;;;;141.18;47.97;;;2.60;99.90;;;;;;5110121;28;20075;-48
2022/01/26 09:55:42;;;;;;;139.20;48.85;;;2.70;99.90;;;;;;5110238;28;20074;-50
2022/01/26 09:58:09;;;;;;;138.85;50.58;;;2.70;99.90;;;;;;5091935;28;20079;-52
2022/01/26 10:00:34;;;;;;;139.82;50.65;;;3.00;99.90;;;;;;5109997;28;20482;-50
2022/01/26 10:03:03;;;;;;;141.75;51.88;;;2.80;99.90;;;;;;5110206;28;20048;-48
2022/01/26 10:05:43;;;;;;;132.70;49.22;;;2.80;99.90;;;;;;5110029;28;20096;-51
2022/01/26 10:08:23;;;;;;;134.23;47.15;;;2.90;99.90;;;;;;5110391;28;20044;-49
2022/01/26 10:18:58;;;;;;;123.90;47.28;;;3.00;99.90;;;;;;5110483;28;20051;-50
2022/01/26 10:21:24;;;;;;;141.00;51.85;;;3.30;99.90;;;;;;5110372;28;20050;-56
2022/01/26 10:23:52;;;;;;;139.10;50.67;;;3.10;99.90;;;;;;5076276;28;20040;-55
2022/01/26 10:26:19;;;;;;;127.93;47.28;;;3.10;99.90;;;;;;5093837;28;20150;-51
2022/01/26 10:29:00;;;;;;;146.02;53.50;;;3.50;99.90;;;;;;5113263;28;20089;-52
2022/01/26 10:31:31;;;;;;;148.30;52.30;;;3.10;99.90;;;;;;5113208;28;20048;-51
2022/01/26 10:33:58;;;;;;;129.75;50.97;;;3.20;99.90;;;;;;5114367;28;20075;-55
2022/01/26 10:36:47;;;;;;;136.00;51.17;;;3.20;99.90;;;;;;5113410;28;20049;-53
2022/01/26 10:39:46;;;;;;;127.35;51.88;;;3.20;99.90;;;;;;5113172;28;20044;-49
2022/01/26 10:42:18;;;;;;;125.38;44.90;;;3.20;99.90;;;;;;5113155;28;20050;-51
2022/01/26 10:47:26;;;;;;;123.95;48.35;;;3.20;99.90;;;;;;5114608;28;20131;-49
2022/01/26 10:52:41;;;;;;;137.40;49.55;;;3.30;99.90;;;;;;5083990;28;20044;-48
2022/01/26 10:55:09;;;;;;;126.30;50.60;;;3.30;99.90;;;;;;5113762;28;20032;-47
2022/01/26 10:57:36;;;;;;;133.43;48.83;;;3.40;99.90;;;;;;5113564;28;20040;-45
2022/01/26 11:00:05;;;;;;;123.75;48.35;;;3.40;99.90;;;;;;5114601;28;20085;-45
2022/01/26 11:02:33;;;;;;;121.72;45.15;;;3.40;99.90;;;;;;5115662;28;20377;-44
2022/01/26 11:05:00;;;;;;;117.93;46.35;;;3.40;99.90;;;;;;5114277;28;20044;-44
2022/01/26 11:07:36;;;;;;;120.03;46.30;;;3.50;99.90;;;;;;5080155;28;20122;-45
2022/01/26 11:10:05;;;;;;;111.63;45.38;;;3.50;99.90;;;;;;5096892;28;20040;-45
2022/01/26 11:12:32;;;;;;;121.63;45.38;;;3.60;99.90;;;;;;5114772;28;20065;-43
2022/01/26 11:15:04;;;;;;;109.10;44.13;;;3.50;99.90;;;;;;5114864;28;20071;-42
2022/01/26 11:17:35;;;;;;;113.45;43.03;;;3.60;99.90;;;;;;5113982;28;20044;-44
2022/01/26 11:20:13;;;;;;;114.70;42.83;;;3.60;99.90;;;;;;5113793;28;20065;-41
2022/01/26 11:22:55;;;;;;;111.00;44.13;;;3.60;99.90;;;;;;5113206;28;20392;-44
2022/01/26 11:25:23;;;;;;;106.75;42.53;;;3.60;99.90;;;;;;5114149;28;20410;-47
2022/01/26 11:27:50;;;;;;;109.88;42.50;;;3.60;99.90;;;;;;5113550;28;20054;-45
2022/01/26 11:30:16;;;;;;;118.88;44.58;;;3.60;99.90;;;;;;5112887;28;20513;-52
2022/01/26 11:32:55;;;;;;;105.38;45.42;;;3.60;99.90;;;;;;5114604;28;20114;-44
2022/01/26 11:35:23;;;;;;;109.60;42.63;;;3.60;99.90;;;;;;5115176;28;20126;-47
2022/01/26 11:38:04;;;;;;;108.63;42.03;;;3.60;99.90;;;;;;5114581;28;20543;-44
2022/01/26 11:46:32;;;;;;;109.93;42.72;;;3.70;99.90;;;;;;5112105;28;20061;-47
2022/01/26 11:49:05;;;;;;;118.72;43.28;;;3.70;99.90;;;;;;5111619;28;20477;-46
2022/01/26 11:51:48;;;;;;;100.53;41.53;;;4.00;99.90;;;;;;5111747;28;20075;-48
2022/01/26 11:54:13;;;;;;;99.22;41.13;;;3.90;99.90;;;;;;5111976;28;20122;-48
2022/01/26 11:56:39;;;;;;;104.10;40.78;;;3.90;99.90;;;;;;5112055;28;20118;-46
2022/01/26 11:59:17;;;;;;;102.63;41.67;;;4.00;99.90;;;;;;5112383;28;20412;-47
2022/01/26 12:01:45;;;;;;;107.68;42.78;;;4.00;99.90;;;;;;5112296;28;20381;-49
2022/01/26 12:04:20;;;;;;;99.45;39.20;;;4.00;99.90;;;;;;5112629;28;20024;-46
2022/01/26 12:06:50;;;;;;;110.70;41.47;;;4.10;99.90;;;;;;5112818;28;20499;-47
2022/01/26 12:09:17;;;;;;;121.53;41.90;;;4.00;99.90;;;;;;5093814;28;20043;-50
2022/01/26 12:11:51;;;;;;;97.18;38.83;;;4.00;99.90;;;;;;5111886;28;20082;-52
2022/01/26 12:14:20;;;;;;;102.78;38.97;;;4.00;99.90;;;;;;5093627;28;20496;-54
2022/01/26 12:16:49;;;;;;;101.60;39.92;;;4.00;99.90;;;;;;5111604;28;20363;-56
2022/01/26 12:19:48;;;;;;;86.43;32.97;;;3.90;99.90;;;;;;5111466;28;20051;-51
2022/01/26 12:36:36;;;;;;;91.25;33.00;;;4.10;99.90;;;;;;5111055;28;20039;-50
2022/01/26 12:39:01;;;;;;;105.63;35.00;;;4.10;99.90;;;;;;5109350;28;20048;-46
2022/01/26 12:44:07;;;;;;;93.72;35.08;;;3.90;99.90;;;;;;5109966;28;20489;-50
2022/01/26 12:46:34;;;;;;;93.43;34.67;;;4.40;99.90;;;;;;5111222;28;20035;-49
2022/01/26 12:49:15;;;;;;;87.38;35.17;;;4.10;99.90;;;;;;5110624;28;20036;-45
2022/01/26 12:51:43;;;;;;;88.65;35.30;;;4.20;99.90;;;;;;5110931;28;20082;-47
2022/01/26 12:54:09;;;;;;;89.53;33.28;;;4.10;99.90;;;;;;5110496;28;20090;-44
2022/01/26 12:56:35;;;;;;;89.38;34.70;;;4.20;99.90;;;;;;5110839;28;20088;-49
2022/01/26 12:59:12;;;;;;;84.10;31.85;;;4.20;99.90;;;;;;5110699;28;20047;-49
2022/01/26 13:01:40;;;;;;;90.53;36.05;;;4.20;99.90;;;;;;5092255;28;20047;-46
2022/01/26 13:04:08;;;;;;;86.85;34.38;;;4.20;99.90;;;;;;5110109;28;20114;-45
2022/01/26 13:06:37;;;;;;;90.57;37.25;;;5.40;99.90;;;;;;5110734;28;20582;-49
2022/01/26 13:09:29;;;;;;;97.57;37.38;;;4.20;99.90;;;;;;5110276;28;20035;-50
2022/01/26 13:12:10;;;;;;;93.57;35.50;;;4.20;99.90;;;;;;5110414;28;20047;-47
2022/01/26 13:17:21;;;;;;;98.18;36.75;;;4.10;99.90;;;;;;5110179;28;20693;-48
2022/01/26 13:25:34;;;;;;;83.85;32.88;;;4.10;99.90;;;;;;5109983;28;20085;-48
2022/01/26 13:28:20;;;;;;;83.80;33.78;;;4.20;99.90;;;;;;5091848;28;20063;-52
2022/01/26 13:36:36;;;;;;;78.50;28.63;;;4.20;99.90;;;;;;5110522;28;20054;-50
2022/01/26 13:59:45;;;;;;;77.00;30.85;;;5.20;99.90;;;;;;5114404;28;20043;-47
2022/01/26 14:02:12;;;;;;;80.32;32.22;;;4.30;99.90;;;;;;5114629;28;20048;-46
2022/01/26 14:04:38;;;;;;;69.50;28.10;;;4.30;99.90;;;;;;5114495;28;20049;-45
2022/01/26 14:07:05;;;;;;;76.45;31.80;;;4.30;99.90;;;;;;5096484;28;20044;-51
2022/01/26 14:09:31;;;;;;;78.50;32.05;;;4.30;99.90;;;;;;5114597;28;20510;-43
2022/01/26 14:11:59;;;;;;;64.40;25.20;;;4.30;99.90;;;;;;5095648;28;20036;-49
2022/01/26 14:14:31;;;;;;;70.57;27.45;;;4.40;99.90;;;;;;5114341;28;20088;-43
2022/01/26 14:17:00;;;;;;;68.20;28.80;;;5.30;99.90;;;;;;5114333;28;20054;-46
2022/01/26 14:24:52;;;;;;;69.00;27.02;;;4.40;99.90;;;;;;5114080;28;20048;-45
2022/01/26 14:27:21;;;;;;;62.95;28.23;;;4.40;99.90;;;;;;5073511;28;20048;-46
2022/01/26 14:54:16;;;;;;;55.38;26.38;;;4.20;99.90;;;;;;5072437;28;20048;-53
2022/01/26 15:22:29;;;;;;;71.43;29.95;;;4.40;99.90;;;;;;5074173;28;20509;-47
2022/01/26 15:35:01;;;;;;;70.22;29.33;;;4.40;99.90;;;;;;5096070;28;20481;-48
2022/01/26 15:50:59;;;;;;;69.80;31.50;;;4.40;99.90;;;;;;5114338;28;20040;-49
2022/01/26 16:12:55;;;;;;;79.57;33.15;;;4.40;99.90;;;;;;5031908;28;20534;-51
2022/01/26 16:37:43;;;;;;;78.63;29.05;;;5.70;99.90;;;;;;5111053;28;20124;-51
2022/01/26 18:31:55;;;;;;;61.97;29.45;;;4.70;99.90;;;;;;5108536;28;20071;-51
2022/01/26 18:50:51;;;;;;;64.30;26.83;;;4.80;99.90;;;;;;5094418;28;20055;-58
2022/01/26 18:53:17;;;;;;;54.97;23.35;;;4.80;99.90;;;;;;5112089;28;20040;-57
2022/01/26 18:55:43;;;;;;;59.35;27.85;;;4.70;99.90;;;;;;5112489;28;20108;-58
2022/01/26 18:58:08;;;;;;;66.18;27.67;;;4.80;99.90;;;;;;5093996;28;20417;-58
2022/01/26 19:00:35;;;;;;;55.17;23.65;;;4.90;99.90;;;;;;5112313;28;20047;-58
2022/01/26 19:03:01;;;;;;;56.70;24.30;;;4.80;99.90;;;;;;5112431;28;20043;-58
2022/01/26 19:05:27;;;;;;;58.22;25.85;;;4.90;99.90;;;;;;5094216;28;20069;-58
2022/01/26 19:07:55;;;;;;;58.90;25.73;;;4.90;99.90;;;;;;5093562;28;20581;-58
2022/01/26 19:10:21;;;;;;;54.25;22.65;;;4.90;99.90;;;;;;5112286;28;20396;-58
2022/01/26 19:12:49;;;;;;;54.33;24.45;;;4.90;99.90;;;;;;5111959;28;20062;-58
2022/01/26 19:15:17;;;;;;;57.30;25.38;;;4.90;99.90;;;;;;5093778;28;20044;-58
2022/01/26 19:25:23;;;;;;;61.20;25.50;;;5.00;99.90;;;;;;5110242;28;20459;-58
2022/01/26 19:28:03;;;;;;;49.63;24.58;;;5.00;99.90;;;;;;5111397;28;20059;-58
2022/01/26 19:51:48;;;;;;;49.22;21.85;;;5.10;99.90;;;;;;5092845;28;20051;-58
2022/01/26 19:54:13;;;;;;;45.42;20.88;;;5.10;99.90;;;;;;5111653;28;20062;-58
2022/01/26 19:56:39;;;;;;;52.05;24.60;;;5.40;99.90;;;;;;5092747;28;20052;-58
2022/01/26 19:59:05;;;;;;;48.53;22.10;;;4.90;99.90;;;;;;5111133;28;20039;-59
2022/01/26 20:01:30;;;;;;;52.63;24.70;;;5.10;99.90;;;;;;5111593;28;20055;-58
2022/01/26 20:03:57;;;;;;;44.35;20.23;;;5.10;99.90;;;;;;5092867;28;20056;-59
2022/01/26 20:06:22;;;;;;;52.47;25.00;;;5.20;99.90;;;;;;5093312;28;20043;-58